This is the latest recevied weather packets stored in our database for station/object VE4GLS. If no packets are shown the sender has not sent any weather packets the latest 10 day(s).
| Time | Temp. | Humidity | Pressure | Rain* | Wind** | Luminosity | Snow |
|---|---|---|---|---|---|---|---|
| 1777873655 | 6.67° C | 93% | 989.6 hPa | 0 mm | - | - | - |
| 1777873394 | 6.67° C | 93% | 989.8 hPa | 0 mm | - | - | - |
| 1777872794 | 6.67° C | 92% | 989.7 hPa | 0.25 mm | - | - | - |
| 1777872754 | 6.67° C | 92% | 989.8 hPa | 0.25 mm | - | - | - |
| 1777872193 | 7.22° C | 92% | 989.7 hPa | 0.76 mm | - | - | - |
| 1777871855 | 7.22° C | 92% | 989.8 hPa | 1.27 mm | - | - | - |
| 1777871595 | 7.22° C | 92% | 990 hPa | 1.27 mm | - | - | - |
| 1777870995 | 7.22° C | 91% | 990.2 hPa | 1.27 mm | - | - | - |
| 1777870954 | 7.22° C | 91% | 990.1 hPa | 1.27 mm | - | - | - |
| 1777870394 | 7.78° C | 90% | 990.5 hPa | 1.27 mm | - | - | - |
| 1777870054 | 7.78° C | 90% | 990.6 hPa | 1.27 mm | - | - | - |
| 1777869794 | 7.78° C | 89% | 990.4 hPa | 1.27 mm | - | - | - |
| 1777869194 | 8.33° C | 87% | 991.1 hPa | 1.02 mm | - | - | - |
| 1777869154 | 8.33° C | 87% | 991.2 hPa | 1.02 mm | - | - | - |
| 1777868594 | 8.33° C | 84% | 991.6 hPa | 0.51 mm | - | - | - |
| 1777868256 | 8.89° C | 81% | 991.7 hPa | 0 mm | - | - | - |
| 1777867994 | 9.44° C | 78% | 991.7 hPa | 0 mm | - | - | - |
| 1777867393 | 10.56° C | 71% | 991.3 hPa | 0 mm | - | - | - |
| 1777867355 | 10.56° C | 70% | 991.4 hPa | 0 mm | - | - | - |
| 1777866793 | 11.67° C | 65% | 991.3 hPa | 0 mm | - | - | - |
| 1777866455 | 11.67° C | 62% | 991.1 hPa | 0 mm | - | - | - |
| 1777866193 | 12.22° C | 60% | 990.9 hPa | 0 mm | - | - | - |
| 1777865593 | 12.78° C | 57% | 990.4 hPa | 0 mm | - | - | - |
| 1777865555 | 12.78° C | 56% | 990.4 hPa | 0 mm | - | - | - |
| 1777864995 | 13.89° C | 53% | 990.3 hPa | 0 mm | - | - | - |
* Rain latest hour (hover to see other rain measurements)
** Current wind speed in m/s (hover to see current wind gust speed)